Latest Weather Observations for Jervis Bay Airfield

IDN60801

Issued at 8:03 pm EST Thursday 13 June 2024 (issued every 10 minutes, with the page automatically refreshed every 10 minutes)

About weather observations | Map of weather stations | Latest weather observations for NSW | Other Formats
Station Details ID: 068264 Name: JERVIS BAY AIRFIELD AWS Lat: -35.14 Lon: 150.70 Height: 57.18 m
Data from the previous 72 hours. | See also: Recent months at Jervis Bay Airfield
Date/Time
EST
Temp
°C
App
Temp
°C
Dew
Point
°C
Rel
Hum
%
Delta-T
°C
Wind Press
QNH
hPa
Press
MSL
hPa
Rain since
9am
mm
Dir  Spd
km/h
Gust
km/h
Spd
kts
Gust
kts
13/08:00pm 11.1 7.6 5.6 69 2.5 W 13 17 7 9 1021.2 1021.2 0.0
13/07:30pm 12.0 8.3 6.3 68 2.7 WSW 15 19 8 10 1021.1 1021.1 0.0
13/07:00pm 11.8 8.4 5.7 66 2.8 SW 13 19 7 10 1020.8 1020.7 0.0
13/06:30pm 12.0 8.1 5.4 64 3.1 WSW 15 19 8 10 1020.8 1020.7 0.0
13/06:00pm 11.9 8.0 5.5 65 3.0 W 15 19 8 10 1020.6 1020.5 0.0
13/05:30pm 11.9 8.5 6.0 67 2.8 W 13 17 7 9 1020.4 1020.3 0.0
13/05:00pm 11.9 8.9 6.2 68 2.7 W 11 13 6 7 1020.2 1020.1 0.0
13/04:30pm 12.2 9.3 6.3 67 2.8 W 11 13 6 7 1019.9 1019.8 0.0
13/04:00pm 12.9 9.6 6.5 65 3.1 WSW 13 17 7 9 1019.9 1019.8 0.0
13/03:30pm 13.6 9.1 6.0 60 3.6 SW 19 28 10 15 1019.6 1019.5 0.0
13/03:00pm 13.4 9.6 6.0 61 3.5 WSW 15 24 8 13 1019.5 1019.4 0.0
13/02:30pm 14.4 9.8 6.3 58 3.9 SW 20 26 11 14 1019.6 1019.5 0.0
13/02:00pm 13.6 8.9 6.2 61 3.5 SSW 20 32 11 17 1019.3 1019.2 0.0
13/01:30pm 13.8 9.1 6.2 60 3.6 SW 20 32 11 17 1019.6 1019.5 0.0
13/01:00pm 13.8 9.1 5.9 59 3.7 SW 20 30 11 16 1019.8 1019.7 0.0
13/12:30pm 14.2 9.3 6.8 61 3.6 SW 22 32 12 17 1019.9 1019.8 0.0
13/12:00pm 13.4 7.9 5.8 60 3.6 SW 24 32 13 17 1019.9 1019.8 0.0
13/11:30am 13.3 7.8 5.7 60 3.6 SW 24 33 13 18 1020.3 1020.2 0.0
13/11:00am 13.3 8.6 5.2 58 3.8 SW 19 28 10 15 1020.3 1020.2 0.0
13/10:30am 13.0 8.1 5.2 59 3.6 SW 20 30 11 16 1021.1 1021.1 0.0
13/10:00am 12.7 7.8 5.1 60 3.5 SW 20 33 11 18 1021.0 1021.0 0.0
13/09:30am 12.0 6.7 5.0 62 3.2 WSW 22 32 12 17 1020.8 1020.7 0.0
13/09:00am 11.6 7.2 4.8 63 3.1 W 17 26 9 14 1020.2 1020.1 1.8
13/08:30am 11.0 7.3 4.2 63 3.0 W 13 17 7 9 1019.8 1019.7 1.8
13/08:00am 11.4 7.4 4.8 64 3.0 WSW 15 28 8 15 1020.2 1020.1 1.8
13/07:30am 11.3 6.2 4.3 62 3.2 SW 20 30 11 16 1020.2 1020.1 1.8
13/07:00am 11.2 5.3 3.7 60 3.3 SW 24 35 13 19 1020.3 1020.2 1.8
13/06:30am 11.1 5.5 3.4 59 3.4 SW 22 32 12 17 1020.0 1019.9 1.8
13/06:00am 11.0 5.0 3.5 60 3.3 WSW 24 35 13 19 1019.7 1019.6 1.8
13/05:30am 11.2 5.4 4.4 63 3.1 SW 24 32 13 17 1019.4 1019.3 1.8
13/05:00am 10.6 5.0 3.4 61 3.1 SW 22 32 12 17 1018.5 1018.5 1.8
13/04:30am 10.6 4.9 2.7 58 3.4 WSW 22 32 12 17 1018.7 1018.7 1.8
13/04:00am 10.9 5.3 3.2 59 3.4 WSW 22 35 12 19 1018.4 1018.4 1.8
13/03:30am 11.1 5.1 3.4 59 3.4 SW 24 39 13 21 1018.3 1018.3 1.8
13/03:00am 11.0 5.4 3.3 59 3.4 WSW 22 41 12 22 1018.3 1018.3 1.8
13/02:30am 11.0 5.3 2.6 56 3.6 WSW 22 33 12 18 1018.4 1018.4 1.8
13/02:00am 10.5 4.2 1.6 54 3.7 WSW 24 35 13 19 1018.4 1018.4 1.8
13/01:30am 11.1 5.0 2.7 56 3.6 WSW 24 43 13 23 1018.4 1018.4 1.8
13/01:00am 10.6 4.8 2.4 57 3.5 WSW 22 30 12 16 1018.3 1018.3 1.8
13/12:30am 11.0 5.3 2.6 56 3.6 WSW 22 33 12 18 1018.2 1018.2 1.8
13/12:00am 10.3 5.1 2.2 57 3.4 WSW 19 26 10 14 1018.4 1018.4 1.8
 
Date/Time
EST
Temp
°C
App
Temp
°C
Dew
Point
°C
Rel
Hum
%
Delta-T
°C
Wind Press
QNH
hPa
Press
MSL
hPa
Rain since
9am
mm
Dir  Spd
km/h
Gust
km/h
Spd
kts
Gust
kts
12/11:30pm 10.1 4.6 2.0 57 3.4 WSW 20 28 11 15 1018.6 1018.6 1.8
12/11:00pm 10.8 4.6 2.1 55 3.7 WSW 24 39 13 21 1018.5 1018.5 1.8
12/10:30pm 10.8 5.0 2.4 56 3.6 WSW 22 30 12 16 1018.3 1018.3 1.8
12/10:00pm 11.4 5.7 2.7 55 3.8 SW 22 39 12 21 1018.2 1018.2 1.8
12/09:30pm 11.9 5.0 2.6 53 4.1 SW 28 39 15 21 1017.9 1017.9 1.8
12/09:00pm 11.3 6.0 2.9 56 3.7 WSW 20 33 11 18 1017.7 1017.7 1.8
12/08:30pm 12.7 4.7 1.4 46 4.8 SW 33 48 18 26 1017.4 1017.4 1.8
12/08:00pm 12.1 6.4 2.6 52 4.1 WSW 22 35 12 19 1016.9 1016.9 1.8
12/07:30pm 11.9 7.0 3.9 58 3.6 WSW 19 26 10 14 1016.4 1016.4 1.8
12/07:00pm 13.0 6.1 2.8 50 4.5 SW 28 43 15 23 1016.0 1016.0 1.8
12/06:30pm 13.2 6.3 2.4 48 4.7 SSW 28 41 15 22 1015.6 1015.6 1.8
12/06:00pm 13.2 5.7 1.5 45 5.0 SSW 30 48 16 26 1015.1 1015.1 1.8
12/05:49pm 13.4 6.5 2.3 47 4.9 SSW 28 46 15 25 1014.9 1014.9 1.8
12/05:30pm 13.4 7.1 1.7 45 5.1 SW 24 35 13 19 1014.5 1014.5 1.8
12/05:00pm 13.3 7.0 1.3 44 5.1 SW 24 37 13 20 1013.9 1013.9 1.8
12/04:30pm 13.8 7.3 0.1 39 5.7 SW 24 35 13 19 1013.3 1013.3 1.8
12/04:00pm 14.1 6.6 1.1 41 5.6 SSW 30 43 16 23 1012.4 1012.4 1.8
12/03:30pm 14.4 5.9 0.6 39 5.9 SSW 35 56 19 30 1011.7 1011.7 1.8
12/03:00pm 14.6 6.7 1.2 40 5.8 SSW 32 52 17 28 1010.8 1010.8 1.8
12/02:59pm 14.6 6.8 1.5 41 5.7 SSW 32 52 17 28 1010.8 1010.8 1.8
12/02:30pm 14.3 6.8 3.2 47 5.0 SW 32 44 17 24 1010.2 1010.2 1.8
12/02:09pm 14.2 7.2 3.9 50 4.7 SW 30 52 16 28 1009.9 1009.9 1.8
12/02:00pm 14.2 7.2 4.2 51 4.6 SW 30 44 16 24 1009.7 1009.7 1.8
12/01:30pm 14.0 7.6 5.1 55 4.2 SW 28 39 15 21 1009.4 1009.4 1.8
12/01:19pm 13.9 7.2 3.4 49 4.7 SW 28 46 15 25 1009.2 1009.2 1.8
12/01:00pm 13.7 6.4 5.6 58 3.8 SSW 33 46 18 25 1009.0 1009.0 1.8
12/12:30pm 12.3 4.6 5.5 63 3.2 SSW 35 54 19 29 1009.1 1009.1 1.8
12/12:09pm 11.2 4.1 7.9 80 1.6 SSW 35 54 19 29 1009.0 1009.0 1.8
12/12:00pm 11.4 3.4 7.3 76 2.0 SSW 39 54 21 29 1008.8 1008.8 1.6
12/11:46am 11.4 3.0 7.5 77 1.9 SSW 41 67 22 36 1008.6 1008.6 1.2
12/11:30am 11.1 2.4 8.3 83 1.4 SSW 44 70 24 38 1008.5 1008.5 1.0
12/11:27am 11.0 2.1 7.7 80 1.6 SSW 44 70 24 38 1008.3 1008.3 0.8
12/11:18am 16.1 9.1 6.0 51 4.9 WSW 32 67 17 36 1008.3 1008.3 0.0
12/11:00am 16.8 10.9 5.7 48 5.4 W 26 35 14 19 1007.2 1007.2 0.0
12/10:30am 16.3 10.5 6.2 51 4.9 WSW 26 37 14 20 1007.4 1007.4 0.0
12/10:00am 15.7 10.9 5.6 51 4.9 W 20 28 11 15 1007.3 1007.3 0.0
12/09:30am 15.3 10.2 5.8 53 4.6 W 22 37 12 20 1007.2 1007.2 0.0
12/09:00am 14.8 9.6 5.6 54 4.4 WNW 22 33 12 18 1007.2 1007.2 1.0
12/08:30am 14.5 10.3 5.8 56 4.2 WNW 17 26 9 14 1007.4 1007.4 1.0
12/08:00am 14.3 9.7 5.4 55 4.2 WNW 19 30 10 16 1007.4 1007.4 1.0
12/07:30am 14.0 9.3 5.1 55 4.2 W 19 28 10 15 1007.4 1007.4 1.0
12/07:00am 13.6 8.9 5.0 56 4.0 W 19 28 10 15 1007.2 1007.2 1.0
12/06:30am 13.9 8.6 5.0 55 4.2 W 22 32 12 17 1006.8 1006.8 1.0
12/06:00am 14.3 9.0 5.1 54 4.3 W 22 37 12 20 1006.5 1006.5 1.0
12/05:30am 14.0 9.1 5.1 55 4.2 W 20 30 11 16 1006.4 1006.4 1.0
12/05:00am 13.9 9.6 5.3 56 4.1 W 17 26 9 14 1006.5 1006.5 1.0
12/04:30am 13.5 9.3 5.7 59 3.7 WNW 17 22 9 12 1006.7 1006.7 1.0
12/04:00am 14.9 9.2 4.9 51 4.7 W 24 44 13 24 1006.6 1006.6 1.0
12/03:30am 14.3 9.5 5.7 56 4.1 W 20 33 11 18 1006.8 1006.8 1.0
12/03:00am 14.6 9.9 5.9 56 4.2 WNW 20 30 11 16 1006.9 1006.9 1.0
12/02:30am 14.7 9.7 6.3 57 4.1 W 22 35 12 19 1007.4 1007.4 1.0
12/02:00am 15.1 9.0 6.4 56 4.2 W 28 44 15 24 1007.3 1007.3 1.0
12/01:30am 14.6 9.3 6.7 59 3.8 W 24 43 13 23 1007.9 1007.9 1.0
12/01:00am 15.1 9.1 6.9 58 4.0 W 28 46 15 25 1007.7 1007.7 1.0
12/12:30am 15.1 9.2 7.6 61 3.7 W 28 46 15 25 1007.7 1007.7 1.0
12/12:24am 15.1 9.2 7.6 61 3.7 W 28 46 15 25 1007.9 1007.9 1.0
12/12:00am 15.2 9.0 8.0 62 3.6 W 30 44 16 24 1008.4 1008.4 1.0
 
Date/Time
EST
Temp
°C
App
Temp
°C
Dew
Point
°C
Rel
Hum
%
Delta-T
°C
Wind Press
QNH
hPa
Press
MSL
hPa
Rain since
9am
mm
Dir  Spd
km/h
Gust
km/h
Spd
kts
Gust
kts
11/11:30pm 15.3 8.6 8.1 62 3.6 WNW 33 52 18 28 1008.3 1008.3 1.0
11/11:14pm 15.1 8.6 8.3 64 3.4 WNW 32 50 17 27 1008.6 1008.6 1.0
11/11:00pm 15.0 8.9 8.3 64 3.4 WNW 30 46 16 25 1009.0 1009.0 1.0
11/10:53pm 15.4 9.7 8.2 62 3.6 WNW 28 46 15 25 1009.5 1009.5 1.0
11/10:30pm 15.5 10.9 8.0 61 3.8 WNW 22 33 12 18 1009.7 1009.7 1.0
11/10:01pm 15.2 9.0 7.7 61 3.7 WNW 30 48 16 26 1008.8 1008.8 1.0
11/10:00pm 15.3 8.7 7.8 61 3.8 WNW 32 48 17 26 1008.7 1008.7 1.0
11/09:39pm 15.4 9.5 7.7 60 3.8 WNW 28 56 15 30 1008.8 1008.8 1.0
11/09:30pm 15.3 9.8 7.6 60 3.8 W 26 41 14 22 1009.4 1009.4 1.0
11/09:18pm 15.6 9.3 7.4 58 4.1 W 30 52 16 28 1009.4 1009.4 1.0
11/09:00pm 15.6 10.0 7.1 57 4.2 W 26 52 14 28 1009.5 1009.5 1.0
11/08:30pm 15.7 8.8 7.2 57 4.2 WNW 33 54 18 29 1009.3 1009.3 1.0
11/08:15pm 15.9 9.9 6.9 55 4.4 W 28 48 15 26 1009.8 1009.8 1.0
11/08:00pm 15.9 10.6 6.9 55 4.4 W 24 43 13 23 1009.9 1009.9 1.0
11/07:50pm 16.1 10.0 6.8 54 4.6 WNW 28 50 15 27 1009.6 1009.6 1.0
11/07:30pm 16.1 11.5 6.5 53 4.7 WNW 20 33 11 18 1009.0 1009.0 1.0
11/07:00pm 15.9 11.3 6.6 54 4.6 WNW 20 33 11 18 1008.8 1008.8 1.0
11/06:30pm 14.8 9.9 7.1 60 3.8 NNW 22 35 12 19 1008.5 1008.5 1.0
11/06:18pm 15.2 8.8 7.0 58 4.0 NW 30 48 16 26 1009.1 1009.1 1.0
11/06:00pm 15.2 9.6 7.3 59 3.9 NW 26 43 14 23 1009.9 1009.9 1.0
11/05:36pm 15.3 9.3 7.1 58 4.0 WNW 28 46 15 25 1010.4 1010.4 1.0
11/05:30pm 15.6 9.2 7.1 57 4.2 WNW 30 46 16 25 1010.4 1010.4 1.0
11/05:28pm 15.6 9.6 7.1 57 4.2 WNW 28 46 15 25 1010.4 1010.4 1.0
11/05:00pm 15.6 10.4 7.1 57 4.2 WNW 24 37 13 20 1010.9 1010.9 1.0
11/04:30pm 15.9 11.5 7.4 57 4.2 NW 20 32 11 17 1010.6 1010.6 1.0
11/04:00pm 16.4 10.9 7.6 56 4.4 WNW 26 44 14 24 1010.7 1010.7 1.0
11/03:30pm 15.8 7.5 7.8 59 4.0 NW 41 67 22 36 1010.5 1010.5 1.0
11/03:04pm 15.8 8.6 7.6 58 4.1 NW 35 59 19 32 1011.1 1011.1 1.0
11/03:00pm 15.4 8.6 7.9 61 3.8 NW 33 48 18 26 1011.2 1011.2 1.0
11/02:30pm 15.8 7.8 7.6 58 4.1 WNW 39 63 21 34 1011.7 1011.7 1.0
11/02:23pm 15.4 9.7 8.2 62 3.6 WNW 28 63 15 34 1012.2 1012.2 1.0
11/02:22pm 15.0 9.6 8.0 63 3.5 WNW 26 63 14 34 1012.4 1012.4 1.0
11/02:10pm 13.6 9.9 8.0 69 2.8 NW 17 37 9 20 1012.5 1012.5 1.0
11/02:00pm 11.4 9.7 7.5 77 1.9 NW 6 11 3 6 1012.5 1012.5 1.0
11/01:30pm 10.8 8.8 7.1 78 1.8 NE 7 11 4 6 1013.3 1013.3 1.0
11/01:00pm 9.9 8.6 6.1 77 1.8 NNE 2 7 1 4 1014.0 1014.0 1.0
11/12:30pm 9.6 6.4 6.7 82 1.4 N 13 20 7 11 1014.5 1014.5 0.8
11/12:00pm 9.7 7.3 7.1 84 1.2 N 9 13 5 7 1014.9 1014.9 0.8
11/11:30am 10.8 7.3 5.3 69 2.5 NNE 13 20 7 11 1015.5 1015.5 0.0
11/11:00am 11.9 7.2 3.4 56 3.8 N 17 26 9 14 1016.0 1016.0 0.0
11/10:30am 12.3 7.7 3.5 55 3.9 NW 17 26 9 14 1017.0 1017.0 0.0
11/10:00am 11.9 7.4 4.2 59 3.5 NNW 17 22 9 12 1017.3 1017.3 0.0
11/09:30am 11.9 6.8 4.2 59 3.5 N 20 32 11 17 1017.5 1017.5 0.0
11/09:00am 11.1 6.6 4.1 62 3.1 N 17 28 9 15 1017.3 1017.3 0.0
11/08:30am 11.2 6.2 4.4 63 3.1 N 20 28 11 15 1017.9 1017.9 0.0
11/08:00am 9.6 4.1 3.8 67 2.5 NNW 22 32 12 17 1018.5 1018.5 0.0
11/07:30am 9.0 4.8 3.6 69 2.3 NNE 15 24 8 13 1018.3 1018.3 0.0
11/07:00am 8.3 3.3 3.6 72 2.0 N 19 24 10 13 1018.8 1018.8 0.0
11/06:30am 8.6 3.4 3.8 72 2.1 NNW 20 33 11 18 1019.2 1019.1 0.0
11/06:00am 8.3 3.4 3.9 74 1.9 NNW 19 28 10 15 1019.3 1019.2 0.0
11/05:30am 8.4 2.5 3.8 73 2.0 NW 24 32 13 17 1019.6 1019.5 0.0
11/05:00am 8.3 3.2 3.9 74 1.9 NNW 20 30 11 16 1019.9 1019.8 0.0
11/04:30am 8.0 4.2 4.0 76 1.7 N 13 20 7 11 1019.9 1019.8 0.0
11/04:00am 7.7 3.9 4.1 78 1.6 N 13 20 7 11 1019.7 1019.6 0.0
11/03:30am 7.9 4.9 4.3 78 1.6 NNE 9 15 5 8 1020.1 1020.0 0.0
11/03:00am 7.7 4.8 4.8 82 1.3 NE 9 13 5 7 1020.5 1020.4 0.0
11/02:30am 8.8 5.9 4.8 76 1.8 NE 9 13 5 7 1020.8 1020.7 0.0
11/02:00am 8.7 6.3 5.3 79 1.5 NNE 7 13 4 7 1020.9 1020.9 0.0
11/01:30am 8.2 5.7 5.0 80 1.4 NE 7 11 4 6 1021.0 1021.0 0.0
11/01:00am 8.3 6.0 5.6 83 1.2 NW 7 11 4 6 1021.2 1021.2 0.0
11/12:30am 8.0 5.3 5.6 85 1.1 NW 9 13 5 7 1021.6 1021.6 0.0
11/12:00am 6.9 4.7 5.1 88 0.8 NW 6 7 3 4 1021.6 1021.6 0.0
 
Date/Time
EST
Temp
°C
App
Temp
°C
Dew
Point
°C
Rel
Hum
%
Delta-T
°C
Wind Press
QNH
hPa
Press
MSL
hPa
Rain since
9am
mm
Dir  Spd
km/h
Gust
km/h
Spd
kts
Gust
kts
10/11:30pm 7.9 5.1 5.0 82 1.3 WNW 9 11 5 6 1022.3 1022.3 0.0
10/11:00pm 8.0 4.5 5.6 85 1.1 W 13 15 7 8 1022.4 1022.4 0.0
10/10:30pm 8.3 5.3 6.1 86 1.0 W 11 13 6 7 1022.5 1022.5 0.0
10/10:00pm 8.4 5.5 6.4 87 0.9 W 11 15 6 8 1022.5 1022.5 0.0
10/09:30pm 8.5 6.1 6.8 89 0.8 W 9 11 5 6 1022.6 1022.6 0.0
10/09:00pm 8.5 6.1 7.1 91 0.7 W 9 11 5 6 1022.8 1022.8 0.0
10/08:30pm 8.9 6.2 7.2 89 0.8 W 11 15 6 8 1022.3 1022.3 0.0

Other formats

Comma delimited format used in spreadsheet applications
http://www.bom.gov.au/fwo/IDN60801/IDN60801.94751.axf

JavaScript Object Notation format (JSON) in row-major order
http://www.bom.gov.au/fwo/IDN60801/IDN60801.94751.json

Data quality

Most of these data are generated automatically and are frequently updated. Quality checks on data are not normally performed. It is possible for incorrect values to appear. Refer to information at About Latest Weather Observations and please check the disclaimer before using these data.